Time;durP1;ratioP1;P1;durP2;ratioP2;P2;SDS_P1;SDS_P2;PMS_P1;PMS_P2;Temp;Humidity;BMP_temperature;BMP_pressure;BME280_temperature;BME280_humidity;BME280_pressure;Samples;Min_cycle;Max_cycle;Signal;HPM_P1;HPM_P2
2022/06/13 00:00:21;;;;;;;11.75;6.40;;;;;;;13.03;92.84;68215.63;4994425;28;20042;-79
2022/06/13 00:02:46;;;;;;;14.48;6.60;;;;;;;12.99;93.28;68216.44;4987075;28;20053;-79
2022/06/13 00:05:13;;;;;;;14.82;6.90;;;;;;;;;;4982802;28;20035;-79
2022/06/13 00:07:38;;;;;;;13.85;6.53;;;;;;;12.84;93.55;68200.53;4993607;28;20046;-78
2022/06/13 00:10:04;;;;;;;12.60;6.90;;;;;;;;;;4990602;28;20035;-79
2022/06/13 00:12:29;;;;;;;13.13;6.57;;;;;;;12.80;93.46;68198.66;4989338;28;20162;-78
2022/06/13 00:14:55;;;;;;;14.82;6.53;;;;;;;;;;4995299;28;20046;-79
2022/06/13 00:17:23;;;;;;;17.58;6.65;;;;;;;12.77;93.97;68192.56;4977301;28;20102;-77
2022/06/13 00:19:49;;;;;;;10.63;6.53;;;;;;;12.76;93.73;68190.84;4995081;28;20598;-79
2022/06/13 00:22:14;;;;;;;15.77;6.30;;;;;;;12.75;93.66;68189.72;4994072;28;20042;-79
2022/06/13 00:24:40;;;;;;;14.38;6.30;;;;;;;12.78;93.32;68193.69;4995042;28;20164;-76
2022/06/13 00:27:05;;;;;;;13.18;5.90;;;;;;;12.75;93.41;68189.72;4986684;28;20039;-79
2022/06/13 00:29:31;;;;;;;12.13;6.68;;;;;;;12.67;93.93;68180.63;4987630;28;20035;-78
2022/06/13 00:31:56;;;;;;;10.45;6.55;;;;;;;12.57;94.36;68170.41;4983084;28;20131;-78
2022/06/13 00:34:22;;;;;;;14.73;6.80;;;;;;;12.47;95.52;68158.47;4974219;28;20058;-78
2022/06/13 00:36:47;;;;;;;16.08;7.18;;;;;;;;;;4969688;28;20056;-79
2022/06/13 00:39:12;;;;;;;15.25;7.22;;;;;;;;;;4987155;28;20030;-78
2022/06/13 00:41:39;;;;;;;14.02;7.93;;;;;;;12.31;96.89;68140.84;4979423;28;20522;-75
2022/06/13 00:44:30;;;;;;;21.80;7.88;;;;;;;12.22;97.57;68133.84;4987500;28;20046;-77
2022/06/13 00:46:56;;;;;;;12.25;7.43;;;;;;;;;;4983158;28;20516;-77
2022/06/13 00:49:21;;;;;;;15.52;7.68;;;;;;;;;;4987505;28;20066;-77
2022/06/13 00:51:48;;;;;;;14.73;7.57;;;;;;;;;;4986226;28;20050;-78
2022/06/13 00:54:16;;;;;;;15.65;7.63;;;;;;;12.09;97.29;68116.97;4986450;28;20046;-75
2022/06/13 00:56:41;;;;;;;17.20;8.02;;;;;;;;;;4985787;28;20042;-77
2022/06/13 00:59:13;;;;;;;14.88;8.23;;;;;;;12.05;98.46;68112.44;4986876;28;20034;-77
2022/06/13 01:01:38;;;;;;;11.55;7.05;;;;;;;;;;4967920;28;20042;-77
2022/06/13 01:04:05;;;;;;;12.75;7.03;;;;;;;11.95;97.75;68101.63;4982319;28;20093;-78
2022/06/13 01:06:35;;;;;;;12.55;6.80;;;;;;;12.00;98.20;68100.84;4979073;28;20062;-76
2022/06/13 01:09:03;;;;;;;14.20;7.95;;;;;;;;;;4966428;28;20132;-75
2022/06/13 01:11:28;;;;;;;13.18;7.80;;;;;;;12.03;99.01;68109.59;4985324;28;20038;-76
2022/06/13 01:14:31;;;;;;;15.80;7.90;;;;;;;12.02;99.60;68109.03;4985707;28;20050;-76
2022/06/13 01:17:04;;;;;;;16.17;7.68;;;;;;;12.08;99.67;68115.28;4968541;28;20070;-77
2022/06/13 01:19:47;;;;;;;13.15;8.10;;;;;;;;;;4985185;28;20405;-77
2022/06/13 01:22:49;;;;;;;15.23;8.18;;;;;;;12.11;99.91;68119.25;4984249;28;20441;-77
2022/06/13 01:25:14;;;;;;;12.43;8.30;;;;;;;;;;4982982;28;20050;-77
2022/06/13 01:28:14;;;;;;;16.50;8.27;;;;;;;12.17;99.73;68125.50;4984096;28;20056;-76
2022/06/13 01:30:59;;;;;;;16.38;8.38;;;;;;;12.17;100.00;68125.50;4983504;28;20288;-77
2022/06/13 01:33:49;;;;;;;16.00;7.95;;;;;;;12.26;99.47;68138.41;4984906;28;20042;-76
2022/06/13 01:37:05;;;;;;;14.27;8.55;;;;;;;12.37;99.04;68142.91;4984016;28;20545;-77
2022/06/13 01:39:30;;;;;;;13.90;8.45;;;;;;;;;;4969968;28;20046;-76
2022/06/13 01:42:02;;;;;;;14.33;8.70;;;;;;;12.38;98.37;68148.81;4984757;28;20042;-77
2022/06/13 01:44:54;;;;;;;19.55;8.38;;;;;;;12.47;97.34;68153.69;4985255;28;20281;-77
2022/06/13 01:47:27;;;;;;;15.18;7.75;;;;;;;12.52;96.79;68164.16;4984808;28;20050;-77
2022/06/13 01:50:01;;;;;;;14.10;7.50;;;;;;;12.53;97.10;68168.50;4986595;28;20054;-76
2022/06/13 01:52:35;;;;;;;13.27;8.05;;;;;;;;;;4982906;28;20042;-76
2022/06/13 01:55:36;;;;;;;15.85;7.78;;;;;;;;;;4982626;28;20816;-76
2022/06/13 01:58:35;;;;;;;17.42;8.50;;;;;;;12.38;98.06;68149.38;4905333;29;20692;-77
2022/06/13 02:01:00;;;;;;;;;;;;;;;;;;4981893;28;20362;-77
2022/06/13 02:03:31;;;;;;;17.30;9.18;;;;;;;12.27;99.48;68139.53;4985432;28;20312;-77
2022/06/13 02:05:56;;;;;;;15.13;9.30;;;;;;;;;;4986843;28;20042;-77
2022/06/13 02:08:44;;;;;;;17.48;9.80;;;;;;;;;;4985110;28;20046;-77
2022/06/13 02:11:15;;;;;;;17.08;9.57;;;;;;;;;;4978690;28;20544;-76
2022/06/13 02:13:49;;;;;;;18.13;10.35;;;;;;;12.59;98.02;68167.31;4985020;28;23575;-77
2022/06/13 02:16:18;;;;;;;16.27;9.70;;;;;;;;;;4985684;28;20049;-76
2022/06/13 02:19:03;;;;;;;16.17;8.93;;;;;;;;;;4986437;28;20133;-77
2022/06/13 02:21:40;;;;;;;20.23;9.80;;;;;;;;;;4970036;28;20454;-77
2022/06/13 02:24:07;;;;;;;15.82;9.38;;;;;;;;;;4977532;28;20387;-76
2022/06/13 02:26:36;;;;;;;18.80;10.20;;;;;;;12.59;97.13;68167.31;4988348;28;20436;-77
2022/06/13 02:29:11;;;;;;;19.83;10.95;;;;;;;;;;4986354;28;20077;-77
2022/06/13 02:31:40;;;;;;;18.75;10.90;;;;;;;;;;4986827;28;20049;-76
2022/06/13 02:34:05;;;;;;;;;;;;;;;;;;4990088;28;20050;-77
2022/06/13 02:36:44;;;;;;;20.00;11.63;;;;;;;;;;4989054;28;19913;-77
2022/06/13 02:39:17;;;;;;;18.50;11.68;;;;;;;12.55;99.74;68167.56;4989657;28;20038;-77
2022/06/13 02:41:45;;;;;;;20.50;11.13;;;;;;;;;;4979949;28;20046;-77
2022/06/13 02:44:15;;;;;;;14.10;7.45;;;;;;;;;;4975297;28;20413;-77
2022/06/13 02:46:50;;;;;;;17.10;8.55;;;;;;;12.81;98.22;68196.53;4989327;28;20050;-77
2022/06/13 02:49:22;;;;;;;18.05;8.75;;;;;;;;;;4989346;28;20113;-77
2022/06/13 02:52:28;;;;;;;17.48;8.40;;;;;;;12.75;99.61;68189.72;4972437;28;20122;-76
2022/06/13 02:55:01;;;;;;;18.38;8.93;;;;;;;12.84;100.00;68203.19;4986860;28;20739;-77
2022/06/13 02:57:48;;;;;;;19.05;9.20;;;;;;;12.83;100.00;68199.38;4991866;28;20430;-77
2022/06/13 03:00:42;;;;;;;17.88;9.98;;;;;;;12.87;100.00;68198.59;4985882;28;20125;-77
2022/06/13 03:03:18;;;;;;;24.45;11.93;;;;;;;12.88;100.00;68205.06;4981952;28;20832;-78
2022/06/13 03:05:50;;;;;;;24.58;12.45;;;;;;;;;;4981583;28;20073;-78
2022/06/13 03:08:31;;;;;;;21.85;12.80;;;;;;;;;;4994640;28;20042;-77
2022/06/13 03:10:56;;;;;;;25.25;12.93;;;;;;;;;;4985833;28;20078;-76
2022/06/13 03:13:34;;;;;;;27.75;13.10;;;;;;;;;;4986885;28;20072;-76
2022/06/13 03:16:08;;;;;;;21.38;11.90;;;;;;;12.70;100.00;68184.59;4991986;28;20058;-76
2022/06/13 03:18:44;;;;;;;22.23;14.05;;;;;;;12.75;100.00;68190.28;4991551;28;20053;-77
2022/06/13 03:21:13;;;;;;;23.80;14.57;;;;;;;12.69;100.00;68183.47;4990393;28;20070;-77
2022/06/13 03:23:42;;;;;;;23.02;14.18;;;;;;;;;;4973263;28;20050;-76
2022/06/13 03:26:16;;;;;;;24.38;14.27;;;;;;;12.68;100.00;68182.31;4990661;28;20523;-77
2022/06/13 03:28:50;;;;;;;24.77;15.73;;;;;;;12.76;100.00;68186.06;4990753;28;20409;-75
2022/06/13 03:31:24;;;;;;;21.85;14.57;;;;;;;12.68;100.00;68182.31;4989256;28;20043;-75
2022/06/13 03:33:55;;;;;;;22.52;13.30;;;;;;;12.66;100.00;68180.06;4989637;28;20057;-76
2022/06/13 03:36:37;;;;;;;23.55;14.73;;;;;;;12.67;100.00;68181.19;4988824;28;20046;-77
2022/06/13 03:39:21;;;;;;;25.45;15.15;;;;;;;;;;4988735;28;20045;-77
2022/06/13 03:42:02;;;;;;;26.98;15.90;;;;;;;12.62;100.00;68178.75;4991053;28;20102;-78
2022/06/13 03:45:00;;;;;;;24.80;15.55;;;;;;;12.64;100.00;68177.78;4989800;28;20047;-77
2022/06/13 03:47:25;;;;;;;26.17;15.63;;;;;;;;;;4984223;28;20599;-78
2022/06/13 03:49:59;;;;;;;24.87;15.20;;;;;;;12.68;100.00;68181.75;4991346;28;20081;-75
2022/06/13 03:52:27;;;;;;;28.55;17.60;;;;;;;12.68;100.00;68184.44;4984669;28;20298;-77
2022/06/13 03:55:05;;;;;;;26.67;14.32;;;;;;;12.57;100.00;68172.50;4990149;28;21703;-77
2022/06/13 03:57:33;;;;;;;24.63;13.77;;;;;;;;;;4988204;28;20042;-76
2022/06/13 04:00:01;;;;;;;21.10;13.50;;;;;;;;;;4991074;28;20046;-78
2022/06/13 04:02:31;;;;;;;26.73;13.77;;;;;;;12.60;100.00;68173.22;4972659;28;20077;-77
2022/06/13 04:04:56;;;;;;;21.88;14.00;;;;;;;12.56;100.00;68169.25;4986726;28;20130;-76
2022/06/13 04:07:22;;;;;;;26.45;14.73;;;;;;;;;;4988587;28;20185;-78
2022/06/13 04:09:53;;;;;;;23.95;13.63;;;;;;;;;;4987297;28;20061;-79
2022/06/13 04:12:42;;;;;;;24.40;13.85;;;;;;;12.83;100.00;68199.38;4988158;28;20038;-79
2022/06/13 04:15:13;;;;;;;24.85;14.43;;;;;;;12.87;100.00;68203.38;4989435;28;20070;-79
2022/06/13 04:17:48;;;;;;;21.48;13.60;;;;;;;12.85;100.00;68204.31;4987613;28;20042;-79
2022/06/13 04:20:29;;;;;;;20.35;12.18;;;;;;;12.76;100.00;68196.19;4990320;28;20046;-79
2022/06/13 04:23:14;;;;;;;24.52;13.57;;;;;;;12.81;100.00;68199.78;4972175;28;20038;-77
2022/06/13 04:26:03;;;;;;;27.55;13.25;;;;;;;12.83;100.00;68198.81;4988282;28;20568;-78
2022/06/13 04:28:33;;;;;;;28.35;14.60;;;;;;;;;;4990301;28;20077;-79
2022/06/13 04:31:00;;;;;;;24.13;13.68;;;;;;;;;;4979187;28;20066;-77
2022/06/13 04:33:41;;;;;;;24.15;14.85;;;;;;;12.86;100.00;68202.81;4985879;28;20050;-77
2022/06/13 04:36:09;;;;;;;21.60;11.73;;;;;;;;;;4970553;28;20518;-76
2022/06/13 04:38:35;;;;;;;21.63;11.50;;;;;;;;;;4987246;28;20125;-76
2022/06/13 04:41:04;;;;;;;23.38;12.30;;;;;;;12.69;100.00;68183.47;4987561;28;20106;-75
2022/06/13 04:43:33;;;;;;;22.60;12.50;;;;;;;;;;4984858;28;20061;-79
2022/06/13 04:46:04;;;;;;;22.90;12.10;;;;;;;;;;4985286;28;20130;-77
2022/06/13 04:48:30;;;;;;;21.35;11.35;;;;;;;;;;4983391;28;20038;-79
2022/06/13 04:51:00;;;;;;;21.25;12.75;;;;;;;12.78;100.00;68193.69;4985484;28;20417;-78
2022/06/13 04:53:29;;;;;;;26.42;13.77;;;;;;;;;;4978749;28;20053;-78
2022/06/13 04:55:55;;;;;;;22.45;12.95;;;;;;;12.93;100.00;68209.63;5016390;22;20551;-85
2022/06/13 04:58:31;;;;;;;18.45;12.13;;;;;;;12.95;100.00;68211.91;4990396;28;20073;-85
2022/06/13 05:01:00;;;;;;;22.95;12.57;;;;;;;12.98;100.00;68215.88;5003739;28;20072;-85
2022/06/13 05:03:29;;;;;;;25.33;13.85;;;;;;;13.03;100.00;68215.63;5018601;28;20277;-85
2022/06/13 05:06:00;;;;;;;25.67;14.10;;;;;;;13.05;100.00;68223.25;5025535;28;20095;-86
2022/06/13 05:08:29;;;;;;;20.60;12.77;;;;;;;13.01;100.00;68213.94;5024005;28;20045;-86
2022/06/13 05:11:00;;;;;;;19.52;12.43;;;;;;;13.02;100.00;68211.84;5023045;28;20053;-89
2022/06/13 05:13:26;;;;;;;22.48;12.55;;;;;;;;;;5005140;28;20045;-87
2022/06/13 05:16:13;;;;;;;22.73;13.07;;;;;;;13.12;100.00;68222.63;5023876;28;20033;-86
2022/06/13 05:19:25;;;;;;;23.75;12.27;;;;;;;13.08;100.00;68226.66;5014488;28;20042;-87
2022/06/13 05:22:11;;;;;;;21.60;11.82;;;;;;;13.03;100.00;68216.22;4989796;28;20683;-88
2022/06/13 05:24:39;;;;;;;24.15;12.20;;;;;;;;;;5019696;28;20056;-88
2022/06/13 05:27:06;;;;;;;21.73;12.17;;;;;;;13.13;100.00;68227.00;5006177;28;20570;-87
2022/06/13 05:29:32;;;;;;;23.17;11.35;;;;;;;;;;5016412;28;20520;-87
2022/06/13 05:31:57;;;;;;;19.50;12.32;;;;;;;13.18;100.00;68237.47;5026092;28;20072;-88
2022/06/13 05:34:31;;;;;;;26.15;13.23;;;;;;;13.34;100.00;68255.69;4992668;28;20037;-89
2022/06/13 05:36:57;;;;;;;21.83;12.20;;;;;;;;;;4985217;28;20048;-87
2022/06/13 05:39:22;;;;;;;24.10;12.85;;;;;;;;;;5003134;28;20763;-88
2022/06/13 05:41:47;;;;;;;18.83;12.35;;;;;;;;;;5005470;28;20072;-87
2022/06/13 05:44:13;;;;;;;19.77;11.30;;;;;;;;;;4992719;28;20058;-88
2022/06/13 05:46:39;;;;;;;20.02;11.60;;;;;;;13.34;100.00;68255.69;5022205;28;20276;-87
2022/06/13 05:49:05;;;;;;;22.80;10.95;;;;;;;13.35;100.00;68251.50;5018876;28;20068;-88
2022/06/13 05:51:30;;;;;;;18.80;10.35;;;;;;;;;;5008796;28;20416;-87
2022/06/13 05:53:57;;;;;;;18.13;9.88;;;;;;;13.50;100.00;68267.97;5003280;28;20049;-87
2022/06/13 05:56:24;;;;;;;17.15;10.02;;;;;;;;;;5018034;28;20046;-86
2022/06/13 05:58:49;;;;;;;20.05;10.23;;;;;;;;;;5001580;28;20730;-87
2022/06/13 06:01:15;;;;;;;18.60;11.60;;;;;;;;;;5011968;28;20140;-89
2022/06/13 06:03:41;;;;;;;21.55;11.43;;;;;;;;;;5011439;28;20132;-90
2022/06/13 06:06:10;;;;;;;20.98;10.10;;;;;;;13.77;100.00;68298.13;5012938;28;20061;-89
2022/06/13 06:08:36;;;;;;;21.63;12.38;;;;;;;;;;5028895;28;20466;-89
2022/06/13 06:11:02;;;;;;;21.63;12.07;;;;;;;13.92;100.00;68314.59;5012390;28;20178;-89
2022/06/13 06:13:28;;;;;;;22.23;11.82;;;;;;;;;;5012017;28;20041;-89
2022/06/13 06:15:55;;;;;;;20.70;10.85;;;;;;;14.05;100.00;68334.75;5012532;28;20041;-90
2022/06/13 06:18:21;;;;;;;22.20;11.60;;;;;;;14.06;100.00;68335.91;5030273;28;20107;-90
2022/06/13 06:20:47;;;;;;;19.98;10.55;;;;;;;14.13;100.00;68343.31;5012429;28;20423;-89
2022/06/13 06:23:13;;;;;;;24.30;11.13;;;;;;;14.27;100.00;68353.31;5012178;28;20439;-89
2022/06/13 06:25:39;;;;;;;18.55;11.25;;;;;;;14.34;100.00;68367.19;5027313;28;20049;-89
2022/06/13 06:28:05;;;;;;;19.20;11.40;;;;;;;14.48;100.00;68382.56;5011626;28;20444;-89
2022/06/13 06:30:32;;;;;;;22.95;10.18;;;;;;;14.52;100.00;68387.13;5011446;28;20049;-89
2022/06/13 06:33:00;;;;;;;22.95;11.80;;;;;;;14.62;100.00;68393.19;5011732;28;20433;-90
2022/06/13 06:35:28;;;;;;;20.25;12.38;;;;;;;14.71;100.00;68408.22;5010513;28;20037;-90
2022/06/13 06:37:54;;;;;;;21.08;11.65;;;;;;;14.65;100.00;68396.03;5011785;28;20048;-89
2022/06/13 06:40:22;;;;;;;18.58;11.82;;;;;;;14.69;99.92;68400.00;5029806;28;20041;-90
2022/06/13 06:42:48;;;;;;;24.50;11.52;;;;;;;14.80;100.00;68417.88;5028308;28;20647;-90
2022/06/13 06:45:14;;;;;;;27.17;12.38;;;;;;;14.88;98.82;68421.63;5024548;28;20756;-89
2022/06/13 06:47:40;;;;;;;16.23;10.73;;;;;;;;;;5023963;28;20079;-89
2022/06/13 06:50:11;;;;;;;15.68;8.75;;;;;;;14.99;93.74;68439.53;5002714;28;20695;-89
2022/06/13 06:52:36;;;;;;;17.75;9.15;;;;;;;15.16;95.20;68452.94;5010934;28;20064;-89
2022/06/13 07:00:29;;;;;;;15.98;7.03;;;;;;;;;;5017172;28;20052;-89
2022/06/13 07:02:57;;;;;;;13.98;6.57;;;;;;;15.34;87.86;68472.88;4990964;28;20053;-89
2022/06/13 07:05:22;;;;;;;11.45;5.72;;;;;;;15.50;88.22;68491.09;5004764;28;20188;-89
2022/06/13 07:07:48;;;;;;;12.07;6.43;;;;;;;;;;5009441;28;20481;-89
2022/06/13 07:10:14;;;;;;;12.23;6.28;;;;;;;15.57;85.69;68504.44;5001297;28;20496;-90
2022/06/13 07:12:40;;;;;;;13.15;6.60;;;;;;;;;;5006787;28;20133;-89
2022/06/13 07:15:06;;;;;;;17.20;7.32;;;;;;;15.60;85.25;68501.38;5025835;28;20087;-89
2022/06/13 07:17:31;;;;;;;13.50;6.10;;;;;;;15.58;84.36;68499.66;5000617;28;20492;-90
2022/06/13 07:19:57;;;;;;;11.15;5.38;;;;;;;15.65;84.98;68512.41;4996734;28;20045;-90
2022/06/13 07:22:23;;;;;;;12.85;5.78;;;;;;;;;;5017589;28;20129;-89
2022/06/13 07:24:50;;;;;;;12.40;5.60;;;;;;;;;;5006331;28;20107;-89
2022/06/13 07:27:16;;;;;;;13.55;5.22;;;;;;;16.00;83.38;68544.28;5010300;28;20057;-89
2022/06/13 07:29:42;;;;;;;10.73;4.72;;;;;;;15.97;79.37;68548.91;5009394;28;20125;-89
2022/06/13 07:32:13;;;;;;;8.02;3.70;;;;;;;;;;5009406;28;20049;-90
2022/06/13 07:34:40;;;;;;;9.65;3.65;;;;;;;16.07;79.46;68559.19;5017147;28;20578;-89
2022/06/13 07:37:08;;;;;;;9.57;3.40;;;;;;;;;;5025626;28;20053;-89
2022/06/13 07:39:33;;;;;;;11.35;4.28;;;;;;;16.17;76.54;68565.19;5026257;28;20033;-90
2022/06/13 07:41:59;;;;;;;7.90;3.75;;;;;;;;;;5008657;28;20048;-90
2022/06/13 07:44:32;;;;;;;8.75;3.60;;;;;;;16.23;78.21;68577.41;5010717;28;20061;-89
2022/06/13 07:46:58;;;;;;;9.27;3.58;;;;;;;16.42;77.41;68593.69;5027350;28;20037;-90
2022/06/13 07:49:24;;;;;;;6.55;2.90;;;;;;;16.55;76.18;68607.38;5010387;28;20504;-90
2022/06/13 07:51:50;;;;;;;7.57;2.53;;;;;;;16.62;74.40;68613.25;5004108;28;20091;-89
2022/06/13 07:54:16;;;;;;;8.05;2.90;;;;;;;16.58;73.13;68611.38;5023471;28;20064;-90
2022/06/13 07:56:42;;;;;;;6.47;2.03;;;;;;;16.62;72.05;68623.41;5025917;28;20620;-89
2022/06/13 07:59:14;;;;;;;7.28;2.13;;;;;;;16.66;72.20;68619.94;5025983;28;20128;-89
2022/06/13 08:01:39;;;;;;;6.70;2.65;;;;;;;16.70;73.06;68624.47;5027232;28;20041;-90
2022/06/13 08:04:05;;;;;;;6.22;2.58;;;;;;;16.75;72.33;68637.69;5028206;28;20033;-90
2022/06/13 08:06:31;;;;;;;7.20;2.28;;;;;;;16.68;71.29;68622.19;5008325;28;20648;-90
2022/06/13 08:08:56;;;;;;;6.40;2.75;;;;;;;16.59;72.09;68611.94;5010459;28;20037;-90
2022/06/13 08:11:29;;;;;;;6.72;2.17;;;;;;;;;;5026236;28;20132;-88
2022/06/13 08:13:54;;;;;;;10.68;2.95;;;;;;;;;;5010871;28;20069;-88
2022/06/13 08:16:19;;;;;;;7.05;2.58;;;;;;;;;;5008752;28;20041;-88
2022/06/13 08:18:45;;;;;;;6.22;2.90;;;;;;;16.58;70.57;68611.38;4998156;28;20600;-88
2022/06/13 08:21:11;;;;;;;8.52;2.22;;;;;;;16.57;72.87;68615.63;5024862;28;20049;-88
2022/06/13 08:23:37;;;;;;;5.75;1.95;;;;;;;16.67;71.21;68626.44;5010943;28;20072;-87
2022/06/13 08:26:02;;;;;;;7.90;2.63;;;;;;;16.73;71.46;68627.91;5017490;28;20073;-88
2022/06/13 08:28:28;;;;;;;5.82;1.95;;;;;;;16.65;70.05;68619.34;5003446;28;20033;-88
2022/06/13 08:31:01;;;;;;;5.85;1.63;;;;;;;16.65;70.10;68616.09;5027256;28;20084;-88
2022/06/13 08:33:27;;;;;;;10.15;2.30;;;;;;;;;;5026772;28;20164;-88
2022/06/13 08:35:52;;;;;;;10.73;2.45;;;;;;;;;;5009277;28;20037;-88
2022/06/13 08:38:18;;;;;;;7.00;2.00;;;;;;;;;;5008624;28;20035;-88
2022/06/13 08:41:15;;;;;;;6.50;1.88;;;;;;;17.08;66.02;68666.69;5008938;28;20042;-87
2022/06/13 08:43:58;;;;;;;5.63;1.70;;;;;;;;;;4997891;28;20060;-87
2022/06/13 08:46:39;;;;;;;5.03;1.70;;;;;;;17.11;66.17;68670.69;5018496;28;20081;-87
2022/06/13 08:49:16;;;;;;;6.70;1.90;;;;;;;;;;5025372;28;20053;-88
2022/06/13 08:51:48;;;;;;;5.53;1.90;;;;;;;17.32;65.01;68694.09;5030050;28;20155;-87
2022/06/13 08:54:31;;;;;;;6.07;2.20;;;;;;;17.39;65.50;68701.50;5020871;28;20504;-88
2022/06/13 08:56:58;;;;;;;7.55;2.20;;;;;;;;;;5014140;28;20049;-88
2022/06/13 08:59:27;;;;;;;4.93;1.90;;;;;;;;;;5025464;28;20061;-88
2022/06/13 09:01:58;;;;;;;5.80;2.03;;;;;;;;;;5009965;28;20045;-88
2022/06/13 09:04:37;;;;;;;4.72;1.77;;;;;;;17.62;65.00;68727.16;5019866;28;20375;-88
2022/06/13 09:07:09;;;;;;;6.07;1.67;;;;;;;;;;5000714;28;20041;-87
2022/06/13 09:09:51;;;;;;;6.32;2.50;;;;;;;17.88;63.03;68761.09;5017698;28;20541;-88
2022/06/13 09:12:27;;;;;;;5.95;2.08;;;;;;;;;;5013572;28;20633;-88
2022/06/13 09:14:59;;;;;;;4.28;1.60;;;;;;;;;;5008075;28;20045;-89
2022/06/13 09:17:33;;;;;;;9.48;2.40;;;;;;;17.68;64.52;68733.44;5009277;28;20069;-89
2022/06/13 09:20:07;;;;;;;6.82;2.25;;;;;;;;;;5003079;28;20033;-84
2022/06/13 09:23:11;;;;;;;8.00;2.70;;;;;;;16.97;76.74;68654.16;5025712;28;20515;-86
2022/06/13 09:25:46;;;;;;;6.65;2.70;;;;;;;16.60;81.12;68618.44;4978487;28;20049;-87
2022/06/13 09:28:20;;;;;;;5.13;2.53;;;;;;;16.38;81.12;68594.50;5002025;28;20400;-87
2022/06/13 09:30:55;;;;;;;7.97;2.38;;;;;;;;;;5017370;28;20129;-88
2022/06/13 09:33:33;;;;;;;6.30;2.30;;;;;;;16.24;80.92;68573.19;4999396;28;20610;-87
2022/06/13 09:36:04;;;;;;;4.63;1.70;;;;;;;16.37;77.28;68593.38;4996264;28;20050;-88
2022/06/13 09:38:34;;;;;;;6.53;1.80;;;;;;;;;;5005807;28;20042;-88
2022/06/13 09:41:02;;;;;;;4.32;1.52;;;;;;;16.91;73.35;68653.81;4988463;28;20066;-87
2022/06/13 09:43:52;;;;;;;4.60;1.77;;;;;;;17.10;72.72;68669.00;5005907;28;20053;-88
2022/06/13 09:46:41;;;;;;;4.50;1.25;;;;;;;17.37;70.85;68705.16;5008690;28;20034;-88
2022/06/13 09:49:29;;;;;;;3.20;1.05;;;;;;;17.44;66.36;68712.59;5009352;28;20500;-88
2022/06/13 09:52:11;;;;;;;4.50;1.50;;;;;;;17.40;66.91;68702.63;5000029;28;20073;-89
2022/06/13 09:54:41;;;;;;;5.10;1.20;;;;;;;;;;5001639;28;20052;-88
2022/06/13 09:57:33;;;;;;;5.00;1.40;;;;;;;17.34;63.02;68695.78;5008214;28;20578;-88
2022/06/13 10:00:23;;;;;;;4.63;1.20;;;;;;;17.13;64.83;68669.72;4988103;28;20104;-88
2022/06/13 10:03:04;;;;;;;6.20;1.50;;;;;;;17.02;65.17;68657.72;5004818;28;20072;-88
2022/06/13 10:05:34;;;;;;;4.65;1.10;;;;;;;;;;5005940;28;20045;-89
2022/06/13 10:08:28;;;;;;;3.25;1.35;;;;;;;17.10;65.07;68664.19;5018565;28;20041;-88
2022/06/13 10:11:07;;;;;;;2.75;1.10;;;;;;;17.19;63.59;68678.69;4994058;28;20049;-88
2022/06/13 10:14:16;;;;;;;2.90;0.80;;;;;;;17.47;63.00;68707.38;4995324;28;20052;-88
2022/06/13 10:17:00;;;;;;;;;;;;;;;17.59;61.05;68729.13;5020807;28;20049;-88
2022/06/13 10:19:35;;;;;;;4.18;1.15;;;;;;;17.71;61.74;68736.88;5015305;28;20494;-88
2022/06/13 10:22:06;;;;;;;2.17;0.90;;;;;;;;;;4996032;28;20673;-88
2022/06/13 10:24:59;;;;;;;3.95;0.80;;;;;;;17.91;58.33;68759.16;5002044;28;20465;-88
2022/06/13 10:27:53;;;;;;;4.15;1.02;;;;;;;18.17;57.46;68788.81;4978024;28;20508;-88
2022/06/13 10:30:51;;;;;;;1.88;0.73;;;;;;;18.30;55.73;68802.50;4989766;28;20123;-88
2022/06/13 10:33:23;;;;;;;2.13;0.80;;;;;;;18.22;55.79;68791.84;4986585;28;20440;-88
2022/06/13 10:35:56;;;;;;;3.67;0.98;;;;;;;17.87;57.04;68754.59;5004013;28;20060;-88
2022/06/13 10:38:41;;;;;;;3.47;0.95;;;;;;;;;;5014717;28;20049;-88
2022/06/13 10:41:07;;;;;;;2.80;0.80;;;;;;;17.84;56.71;68751.72;5023567;28;20947;-88
2022/06/13 10:43:34;;;;;;;4.00;0.70;;;;;;;18.10;56.92;68780.28;5009971;28;20104;-88
2022/06/13 10:45:59;;;;;;;3.25;1.20;;;;;;;;;;5024058;28;20085;-88
2022/06/13 10:48:29;;;;;;;3.22;0.85;;;;;;;;;;5010254;28;20077;-88
2022/06/13 10:50:56;;;;;;;2.70;0.75;;;;;;;;;;5025916;28;20099;-87
2022/06/13 10:53:35;;;;;;;2.38;0.77;;;;;;;17.88;56.83;68755.72;5025228;28;20037;-87
2022/06/13 10:56:04;;;;;;;3.90;0.95;;;;;;;17.86;55.32;68753.44;5007560;28;20046;-88
2022/06/13 10:58:42;;;;;;;2.28;0.63;;;;;;;17.96;53.81;68762.16;5026974;28;20052;-88
2022/06/13 11:01:08;;;;;;;5.03;0.90;;;;;;;18.08;54.02;68778.53;5022118;28;20099;-87
2022/06/13 11:03:33;;;;;;;5.97;0.93;;;;;;;;;;5021867;28;20129;-90
2022/06/13 11:06:02;;;;;;;5.32;1.02;;;;;;;17.85;54.24;68757.69;5024785;28;20064;-90
2022/06/13 11:08:29;;;;;;;3.13;0.88;;;;;;;17.78;54.82;68750.84;5026041;28;20049;-90
2022/06/13 11:11:05;;;;;;;3.65;0.90;;;;;;;17.92;55.56;68760.84;5025031;28;20049;-91
2022/06/13 11:13:41;;;;;;;2.25;0.60;;;;;;;18.33;54.96;68805.97;5013771;28;20037;-90
2022/06/13 11:22:45;;;;;;;3.67;1.23;;;;;;;;;;5004851;28;20103;-90
2022/06/13 11:25:16;;;;;;;2.70;0.80;;;;;;;;;;5022184;28;20048;-90
2022/06/13 11:27:45;;;;;;;3.08;0.85;;;;;;;18.32;52.33;68804.81;5010411;28;20579;-90
2022/06/13 11:30:30;;;;;;;2.67;0.65;;;;;;;18.70;52.98;68848.19;5029316;28;20119;-91
2022/06/13 11:33:14;;;;;;;3.92;1.00;;;;;;;;;;5015728;28;20412;-90
2022/06/13 11:35:39;;;;;;;3.90;0.88;;;;;;;19.03;49.82;68884.75;5005910;28;20099;-89
2022/06/13 11:38:16;;;;;;;3.05;0.80;;;;;;;;;;4996094;28;20447;-91
2022/06/13 11:40:45;;;;;;;2.45;0.60;;;;;;;18.96;47.33;68876.19;5005348;28;20064;-90
2022/06/13 11:43:18;;;;;;;1.40;0.57;;;;;;;18.75;49.28;68847.97;5003642;28;20052;-90
2022/06/13 11:45:54;;;;;;;2.35;0.65;;;;;;;18.99;48.67;68877.50;5022961;28;20144;-90
2022/06/13 11:48:19;;;;;;;3.35;0.70;;;;;;;19.24;48.88;68907.59;5024498;28;20174;-90
2022/06/13 11:50:44;;;;;;;1.95;0.50;;;;;;;;;;5017651;28;20096;-90
2022/06/13 11:55:58;;;;;;;2.85;0.88;;;;;;;;;;5018808;28;20053;-90
2022/06/13 11:58:27;;;;;;;2.47;0.70;;;;;;;18.88;50.66;68868.22;4999710;28;20045;-90
2022/06/13 12:01:00;;;;;;;3.15;0.80;;;;;;;18.93;50.16;68873.34;5004088;28;20128;-92
2022/06/13 12:03:26;;;;;;;2.63;0.68;;;;;;;;;;5011225;28;20099;-91
2022/06/13 12:06:08;;;;;;;3.63;0.77;;;;;;;18.88;46.73;68867.63;5012374;28;20053;-91
2022/06/13 12:08:33;;;;;;;2.55;0.70;;;;;;;18.78;47.66;68856.22;5010014;28;20033;-90
2022/06/13 12:11:03;;;;;;;2.78;1.00;;;;;;;18.84;48.78;68858.22;5014585;28;20125;-91
2022/06/13 12:13:33;;;;;;;3.30;0.85;;;;;;;19.06;48.88;68888.19;5007203;28;20046;-87
2022/06/13 12:16:10;;;;;;;2.42;0.90;;;;;;;18.94;47.51;68872.34;5025276;28;20591;-90
2022/06/13 12:18:58;;;;;;;2.03;0.70;;;;;;;18.74;47.03;68851.66;5022561;28;20042;-88
2022/06/13 12:21:29;;;;;;;2.50;0.90;;;;;;;;;;5006182;28;20041;-88
2022/06/13 12:24:15;;;;;;;2.28;0.95;;;;;;;18.56;51.16;68829.53;5022267;28;20045;-88
2022/06/13 12:26:46;;;;;;;2.17;0.90;;;;;;;18.86;49.17;68865.34;5023257;28;20048;-88
2022/06/13 12:29:49;;;;;;;5.28;1.20;;;;;;;19.01;48.55;68879.78;5023469;28;20072;-88
2022/06/13 12:32:20;;;;;;;3.67;0.82;;;;;;;19.09;49.13;68888.91;5011571;28;20136;-88
2022/06/13 12:34:57;;;;;;;3.95;0.90;;;;;;;19.28;48.57;68909.50;5005608;28;20120;-87
2022/06/13 12:37:26;;;;;;;4.60;0.82;;;;;;;;;;5007290;28;20069;-88
2022/06/13 12:40:12;;;;;;;2.95;1.02;;;;;;;19.25;46.03;68908.75;4992549;28;20067;-88
2022/06/13 12:42:46;;;;;;;3.10;0.85;;;;;;;;;;5022045;28;20120;-88
2022/06/13 12:45:36;;;;;;;4.07;1.08;;;;;;;19.55;44.87;68942.47;5024682;28;20091;-90
2022/06/13 12:48:09;;;;;;;2.08;0.60;;;;;;;19.58;45.54;68946.47;5005767;28;20673;-88
2022/06/13 12:50:59;;;;;;;4.40;0.55;;;;;;;19.15;43.99;68895.78;5006622;28;20052;-89
2022/06/13 12:53:46;;;;;;;6.63;0.80;;;;;;;19.14;47.34;68896.75;5006492;28;20458;-88
2022/06/13 12:56:42;;;;;;;3.45;0.80;;;;;;;19.63;44.24;68951.59;5021364;28;20072;-88
2022/06/13 12:59:17;;;;;;;3.38;0.90;;;;;;;19.99;44.74;68988.91;5016437;28;20132;-89
2022/06/13 13:01:59;;;;;;;2.78;0.63;;;;;;;20.04;42.79;68994.63;5003722;28;20048;-87
2022/06/13 13:04:40;;;;;;;2.55;0.70;;;;;;;;;;5024520;28;20084;-88